Time,TemperatureF,DewpointF,PressureIn,WindDirection,WindDirectionDegrees,WindSpeedMPH,WindSpeedGustMPH,Humidity,HourlyPrecipIn,Conditions,Clouds,dailyrainin,SoftwareType,DateUTC
2013-06-06 00:00:00,54.7,50.3,30.06,West,270,0.0,0.0,85,0.00,,---,0.00,VWS V14.01,2013-06-06 07:00:00,
2013-06-06 00:05:00,54.9,50.8,30.06,West,270,0.0,0.0,86,0.00,,---,0.00,VWS V14.01,2013-06-06 07:05:00,
2013-06-06 00:10:00,54.9,50.8,30.06,West,270,0.0,0.0,86,0.00,,---,0.00,VWS V14.01,2013-06-06 07:10:00,
2013-06-06 00:15:00,54.7,50.9,30.06,West,270,0.0,0.0,87,0.00,,---,0.00,VWS V14.01,2013-06-06 07:15:00,
2013-06-06 00:20:00,54.5,50.7,30.06,WNW,292,0.0,0.0,87,0.00,,---,0.00,VWS V14.01,2013-06-06 07:20:00,
2013-06-06 00:25:00,54.5,51.0,30.06,WNW,292,0.0,0.0,88,0.00,,---,0.00,VWS V14.01,2013-06-06 07:25:00,
2013-06-06 00:30:00,54.3,50.8,30.09,WNW,292,0.0,0.0,88,0.00,,---,0.00,VWS V14.01,2013-06-06 07:30:00,
2013-06-06 00:35:00,54.3,50.8,30.09,WNW,292,0.0,0.0,88,0.00,,---,0.00,VWS V14.01,2013-06-06 07:35:00,
2013-06-06 00:41:00,54.1,50.7,30.09,WNW,292,0.0,0.0,88,0.00,,---,0.00,VWS V14.01,2013-06-06 07:41:00,
2013-06-06 00:46:00,54.0,50.8,30.06,WNW,292,0.0,0.0,89,0.00,,---,0.00,VWS V14.01,2013-06-06 07:46:00,
2013-06-06 00:51:00,53.8,50.6,30.06,WNW,292,0.0,0.0,89,0.00,,---,0.00,VWS V14.01,2013-06-06 07:51:00,
2013-06-06 00:56:00,53.8,50.6,30.06,WNW,292,0.0,0.0,89,0.00,,---,0.00,VWS V14.01,2013-06-06 07:56:00,
2013-06-06 01:01:00,53.6,50.4,30.06,WNW,292,0.0,0.0,89,0.00,,---,0.00,VWS V14.01,2013-06-06 08:01:00,
2013-06-06 01:06:00,53.4,50.6,30.06,WNW,292,0.0,0.0,90,0.00,,---,0.00,VWS V14.01,2013-06-06 08:06:00,
2013-06-06 01:12:00,53.2,50.4,30.06,WNW,292,0.0,0.0,90,0.00,,---,0.00,VWS V14.01,2013-06-06 08:12:00,
2013-06-06 01:17:00,53.1,50.2,30.06,WNW,292,0.0,0.0,90,0.00,,---,0.00,VWS V14.01,2013-06-06 08:17:00,
2013-06-06 01:22:00,52.9,50.0,30.06,WNW,292,0.0,0.0,90,0.00,,---,0.00,VWS V14.01,2013-06-06 08:22:00,
2013-06-06 01:27:00,52.9,50.0,30.03,WNW,292,0.0,0.0,90,0.00,,---,0.00,VWS V14.01,2013-06-06 08:27:00,
2013-06-06 01:32:00,52.9,50.0,30.03,WNW,292,0.0,0.0,90,0.00,,---,0.00,VWS V14.01,2013-06-06 08:32:00,
2013-06-06 01:37:00,52.9,50.3,30.03,WNW,292,0.0,0.0,91,0.00,,---,0.00,VWS V14.01,2013-06-06 08:37:00,
2013-06-06 01:42:00,52.7,50.2,30.03,WNW,292,0.0,0.0,91,0.00,,---,0.00,VWS V14.01,2013-06-06 08:42:00,
2013-06-06 01:47:00,52.7,50.2,30.03,WNW,292,0.0,0.0,91,0.00,,---,0.00,VWS V14.01,2013-06-06 08:47:00,
2013-06-06 01:52:00,52.7,50.5,30.03,WNW,292,0.0,0.0,92,0.00,,---,0.00,VWS V14.01,2013-06-06 08:52:00,
2013-06-06 01:57:00,52.5,50.3,30.03,WNW,292,0.0,0.0,92,0.00,,---,0.00,VWS V14.01,2013-06-06 08:57:00,
2013-06-06 02:03:00,52.5,50.3,30.03,WNW,292,0.0,0.0,92,0.00,,---,0.00,VWS V14.01,2013-06-06 09:03:00,
2013-06-06 02:08:00,52.3,50.1,30.03,WNW,292,0.0,0.0,92,0.00,,---,0.00,VWS V14.01,2013-06-06 09:08:00,
2013-06-06 02:13:00,52.3,50.1,30.06,WNW,292,0.0,0.0,92,0.00,,---,0.00,VWS V14.01,2013-06-06 09:13:00,
2013-06-06 02:18:00,52.2,49.9,30.06,WNW,292,0.0,0.0,92,0.00,,---,0.00,VWS V14.01,2013-06-06 09:18:00,
2013-06-06 02:23:00,52.2,49.9,30.06,WNW,292,0.0,0.0,92,0.00,,---,0.00,VWS V14.01,2013-06-06 09:23:00,
2013-06-06 02:28:00,51.8,49.5,30.06,WNW,292,0.0,0.0,92,0.00,,---,0.00,VWS V14.01,2013-06-06 09:28:00,
2013-06-06 02:34:00,51.6,49.7,30.06,WNW,292,0.0,0.0,93,0.00,,---,0.00,VWS V14.01,2013-06-06 09:34:00,
2013-06-06 02:39:00,51.6,49.7,30.06,WNW,292,0.0,0.0,93,0.00,,---,0.00,VWS V14.01,2013-06-06 09:39:00,
2013-06-06 02:44:00,51.4,49.8,30.06,WNW,292,0.0,0.0,94,0.00,,---,0.00,VWS V14.01,2013-06-06 09:44:00,
2013-06-06 02:49:00,51.3,49.3,30.06,WNW,292,0.0,0.0,93,0.00,,---,0.00,VWS V14.01,2013-06-06 09:49:00,
2013-06-06 02:54:00,51.1,49.4,30.06,WNW,292,0.0,0.0,94,0.00,,---,0.00,VWS V14.01,2013-06-06 09:54:00,
2013-06-06 02:59:00,50.9,49.2,30.03,WNW,292,0.0,0.0,94,0.00,,---,0.00,VWS V14.01,2013-06-06 09:59:00,
2013-06-06 03:04:00,50.7,49.1,30.03,WNW,292,0.0,0.0,94,0.00,,---,0.00,VWS V14.01,2013-06-06 10:04:00,
2013-06-06 03:09:00,50.5,48.9,30.03,WNW,292,0.0,0.0,94,0.00,,---,0.00,VWS V14.01,2013-06-06 10:09:00,
2013-06-06 03:14:00,50.5,48.9,30.03,WNW,292,0.0,0.0,94,0.00,,---,0.00,VWS V14.01,2013-06-06 10:14:00,
2013-06-06 03:19:00,50.4,48.7,30.03,WNW,292,0.0,0.0,94,0.00,,---,0.00,VWS V14.01,2013-06-06 10:19:00,
2013-06-06 03:25:00,50.2,48.5,30.03,WNW,292,0.0,0.0,94,0.00,,---,0.00,VWS V14.01,2013-06-06 10:25:00,
2013-06-06 03:30:00,50.0,48.3,30.06,WNW,292,0.0,0.0,94,0.00,,---,0.00,VWS V14.01,2013-06-06 10:30:00,
2013-06-06 03:35:00,50.0,48.3,30.06,WNW,292,0.0,0.0,94,0.00,,---,0.00,VWS V14.01,2013-06-06 10:35:00,
2013-06-06 03:40:00,49.8,48.5,30.06,WNW,292,0.0,0.0,95,0.00,,---,0.00,VWS V14.01,2013-06-06 10:40:00,
2013-06-06 03:45:00,49.6,48.3,30.06,WNW,292,0.0,0.0,95,0.00,,---,0.00,VWS V14.01,2013-06-06 10:45:00,
2013-06-06 03:50:00,49.6,48.3,30.06,WNW,292,0.0,0.0,95,0.00,,---,0.00,VWS V14.01,2013-06-06 10:50:00,
2013-06-06 03:55:00,49.5,48.1,30.06,WNW,292,0.0,0.0,95,0.00,,---,0.00,VWS V14.01,2013-06-06 10:55:00,
2013-06-06 04:01:00,49.3,47.9,30.06,WNW,292,0.0,0.0,95,0.00,,---,0.00,VWS V14.01,2013-06-06 11:01:00,
2013-06-06 04:06:00,49.3,47.9,30.06,WNW,292,0.0,0.0,95,0.00,,---,0.00,VWS V14.01,2013-06-06 11:06:00,
2013-06-06 04:11:00,48.9,47.5,30.06,WNW,292,0.0,0.0,95,0.00,,---,0.00,VWS V14.01,2013-06-06 11:11:00,
2013-06-06 04:16:00,48.7,47.4,30.06,WNW,292,0.0,0.0,95,0.00,,---,0.00,VWS V14.01,2013-06-06 11:16:00,
2013-06-06 04:21:00,48.7,47.7,30.06,WNW,292,0.0,0.0,96,0.00,,---,0.00,VWS V14.01,2013-06-06 11:21:00,
2013-06-06 04:26:00,48.6,47.5,30.06,WNW,292,0.0,0.0,96,0.00,,---,0.00,VWS V14.01,2013-06-06 11:26:00,
2013-06-06 04:32:00,48.6,47.5,30.06,WNW,292,0.0,0.0,96,0.00,,---,0.00,VWS V14.01,2013-06-06 11:32:00,
2013-06-06 04:37:00,48.4,47.3,30.06,WNW,292,0.0,0.0,96,0.00,,---,0.00,VWS V14.01,2013-06-06 11:37:00,
2013-06-06 04:42:00,48.2,47.1,30.06,WNW,292,0.0,0.0,96,0.00,,---,0.00,VWS V14.01,2013-06-06 11:42:00,
2013-06-06 04:47:00,48.0,46.9,30.06,WNW,292,0.0,0.0,96,0.00,,---,0.00,VWS V14.01,2013-06-06 11:47:00,
2013-06-06 04:52:00,47.8,46.8,30.06,WNW,292,0.0,0.0,96,0.00,,---,0.00,VWS V14.01,2013-06-06 11:52:00,
2013-06-06 04:57:00,47.7,46.8,30.09,WNW,292,0.0,0.0,97,0.00,,---,0.00,VWS V14.01,2013-06-06 11:57:00,
2013-06-06 05:02:00,47.5,46.4,30.09,WNW,292,0.0,0.0,96,0.00,,---,0.00,VWS V14.01,2013-06-06 12:02:00,
2013-06-06 05:07:00,47.3,46.2,30.09,WNW,292,0.0,0.0,96,0.00,,---,0.00,VWS V14.01,2013-06-06 12:07:00,
2013-06-06 05:12:00,47.3,46.2,30.06,WNW,292,0.0,0.0,96,0.00,,---,0.00,VWS V14.01,2013-06-06 12:12:00,
2013-06-06 05:18:00,47.3,46.2,30.06,WNW,292,0.0,0.0,96,0.00,,---,0.00,VWS V14.01,2013-06-06 12:18:00,
2013-06-06 05:23:00,47.1,46.0,30.06,WNW,292,0.0,0.0,96,0.00,,---,0.00,VWS V14.01,2013-06-06 12:23:00,
2013-06-06 05:28:00,47.1,46.0,30.09,WNW,292,0.0,0.0,96,0.00,,---,0.00,VWS V14.01,2013-06-06 12:28:00,
2013-06-06 05:33:00,47.1,46.3,30.09,WNW,292,0.0,0.0,97,0.00,,---,0.00,VWS V14.01,2013-06-06 12:33:00,
2013-06-06 05:38:00,46.9,46.1,30.09,WNW,292,0.0,0.0,97,0.00,,---,0.00,VWS V14.01,2013-06-06 12:38:00,
2013-06-06 05:43:00,46.9,46.1,30.09,WNW,292,0.0,0.0,97,0.00,,---,0.00,VWS V14.01,2013-06-06 12:43:00,
2013-06-06 05:48:00,46.8,46.0,30.09,WNW,292,0.0,0.0,97,0.00,,---,0.00,VWS V14.01,2013-06-06 12:48:00,
2013-06-06 05:53:00,46.9,46.1,30.09,WNW,292,0.0,0.0,97,0.00,,---,0.00,VWS V14.01,2013-06-06 12:53:00,
2013-06-06 05:58:00,47.1,46.3,30.09,WNW,292,0.0,0.0,97,0.00,,---,0.00,VWS V14.01,2013-06-06 12:58:00,
2013-06-06 06:03:00,47.1,46.6,30.09,WNW,292,0.0,0.0,98,0.00,,---,0.00,VWS V14.01,2013-06-06 13:03:00,
2013-06-06 06:08:00,47.3,46.8,30.09,WNW,292,0.0,0.0,98,0.00,,---,0.00,VWS V14.01,2013-06-06 13:08:00,
2013-06-06 06:13:00,47.5,47.0,30.09,WNW,292,0.0,0.0,98,0.00,,---,0.00,VWS V14.01,2013-06-06 13:13:00,
2013-06-06 06:19:00,47.8,47.3,30.09,WNW,292,0.0,0.0,98,0.00,,---,0.00,VWS V14.01,2013-06-06 13:19:00,
2013-06-06 06:24:00,48.2,47.7,30.09,WNW,292,0.0,0.0,98,0.00,,---,0.00,VWS V14.01,2013-06-06 13:24:00,
2013-06-06 06:29:00,48.4,47.8,30.06,WNW,292,0.0,0.0,98,0.00,,---,0.00,VWS V14.01,2013-06-06 13:29:00,
2013-06-06 06:34:00,48.6,48.0,30.06,WNW,292,0.0,0.0,98,0.00,,---,0.00,VWS V14.01,2013-06-06 13:34:00,
2013-06-06 06:39:00,48.9,48.4,30.06,WNW,292,0.0,0.0,98,0.00,,---,0.00,VWS V14.01,2013-06-06 13:39:00,
2013-06-06 06:44:00,51.3,50.7,30.09,SSW,202,0.0,0.0,98,0.00,,---,0.00,VWS V14.01,2013-06-06 13:44:00,
2013-06-06 06:49:00,54.0,53.4,30.09,SSW,202,0.0,0.0,98,0.00,,---,0.00,VWS V14.01,2013-06-06 13:49:00,
2013-06-06 06:54:00,55.9,55.4,30.09,SSW,202,0.0,0.0,98,0.00,,---,0.00,VWS V14.01,2013-06-06 13:54:00,
2013-06-06 06:59:00,58.1,56.7,30.09,ESE,112,0.0,0.0,95,0.00,,---,0.00,VWS V14.01,2013-06-06 13:59:00,
2013-06-06 07:05:00,59.5,57.2,30.09,SSE,158,0.0,0.0,92,0.00,,---,0.00,VWS V14.01,2013-06-06 14:05:00,
2013-06-06 07:10:00,60.6,56.7,30.09,SSW,202,0.0,0.0,87,0.00,,---,0.00,VWS V14.01,2013-06-06 14:10:00,
2013-06-06 07:15:00,62.2,56.3,30.09,East,90,0.0,0.0,81,0.00,,---,0.00,VWS V14.01,2013-06-06 14:15:00,
2013-06-06 07:20:00,62.8,55.5,30.09,ENE,68,2.2,2.2,77,0.00,,---,0.00,VWS V14.01,2013-06-06 14:20:00,
2013-06-06 07:25:00,62.8,52.9,30.09,East,90,1.3,1.3,70,0.00,,---,0.00,VWS V14.01,2013-06-06 14:25:00,
2013-06-06 07:30:00,63.0,52.6,30.09,ESE,112,0.0,0.0,69,0.00,,---,0.00,VWS V14.01,2013-06-06 14:30:00,
2013-06-06 07:35:00,63.1,51.6,30.09,ESE,112,0.9,1.1,66,0.00,,---,0.00,VWS V14.01,2013-06-06 14:35:00,
2013-06-06 07:40:00,63.9,51.9,30.09,SSW,202,1.3,1.3,65,0.00,,---,0.00,VWS V14.01,2013-06-06 14:40:00,
2013-06-06 07:46:00,64.6,51.7,30.09,ESE,112,0.0,1.1,63,0.00,,---,0.00,VWS V14.01,2013-06-06 14:46:00,
2013-06-06 07:51:00,64.4,49.3,30.09,East,90,0.0,2.5,58,0.00,,---,0.00,VWS V14.01,2013-06-06 14:51:00,
2013-06-06 07:56:00,65.7,51.4,30.09,SSW,202,0.0,0.0,60,0.00,,---,0.00,VWS V14.01,2013-06-06 14:56:00,
2013-06-06 08:01:00,66.6,50.9,30.09,SSW,202,0.0,0.0,57,0.00,,---,0.00,VWS V14.01,2013-06-06 15:01:00,
2013-06-06 08:06:00,66.7,50.6,30.09,ESE,112,0.0,0.0,56,0.00,,---,0.00,VWS V14.01,2013-06-06 15:06:00,
2013-06-06 08:12:00,67.3,50.1,30.09,South,180,0.0,1.3,54,0.00,,---,0.00,VWS V14.01,2013-06-06 15:12:00,
2013-06-06 08:17:00,67.1,48.9,30.09,East,90,2.5,2.5,52,0.00,,---,0.00,VWS V14.01,2013-06-06 15:17:00,
2013-06-06 08:22:00,67.8,49.0,30.09,East,90,1.6,2.7,51,0.00,,---,0.00,VWS V14.01,2013-06-06 15:22:00,
2013-06-06 08:27:00,68.9,50.6,30.06,East,90,0.0,0.0,52,0.00,,---,0.00,VWS V14.01,2013-06-06 15:27:00,
2013-06-06 08:32:00,69.4,50.0,30.06,ESE,112,1.1,2.0,50,0.00,,---,0.00,VWS V14.01,2013-06-06 15:32:00,
2013-06-06 08:37:00,70.2,50.7,30.06,ESE,112,1.1,1.3,50,0.00,,---,0.00,VWS V14.01,2013-06-06 15:37:00,
2013-06-06 08:42:00,71.2,51.1,30.09,ESE,112,0.0,0.0,49,0.00,,---,0.00,VWS V14.01,2013-06-06 15:42:00,
2013-06-06 08:47:00,71.4,50.7,30.09,SE,135,1.6,1.6,48,0.00,,---,0.00,VWS V14.01,2013-06-06 15:47:00,
2013-06-06 08:52:00,72.0,51.2,30.09,SW,225,1.6,1.6,48,0.00,,---,0.00,VWS V14.01,2013-06-06 15:52:00,
2013-06-06 08:57:00,72.0,51.2,30.09,SW,225,0.0,1.1,48,0.00,,---,0.00,VWS V14.01,2013-06-06 15:57:00,
2013-06-06 09:02:00,72.7,50.1,30.09,South,180,2.5,2.5,45,0.00,,---,0.00,VWS V14.01,2013-06-06 16:02:00,
2013-06-06 09:07:00,74.1,52.0,30.09,SSE,158,0.0,0.0,46,0.00,,---,0.00,VWS V14.01,2013-06-06 16:07:00,
2013-06-06 09:13:00,75.0,51.7,30.09,SSE,158,0.0,2.7,44,0.00,,---,0.00,VWS V14.01,2013-06-06 16:13:00,
2013-06-06 09:18:00,74.8,52.1,30.09,SE,135,1.1,2.2,45,0.00,,---,0.00,VWS V14.01,2013-06-06 16:18:00,
2013-06-06 09:23:00,75.0,50.4,30.09,SSE,158,1.3,1.6,42,0.00,,---,0.00,VWS V14.01,2013-06-06 16:23:00,
2013-06-06 09:28:00,75.6,51.5,30.09,NW,315,0.0,0.0,43,0.00,,---,0.00,VWS V14.01,2013-06-06 16:28:00,
2013-06-06 09:33:00,76.6,51.2,30.09,East,90,0.0,0.0,41,0.00,,---,0.00,VWS V14.01,2013-06-06 16:33:00,
2013-06-06 09:38:00,77.5,52.7,30.09,SSW,202,0.0,1.1,42,0.00,,---,0.00,VWS V14.01,2013-06-06 16:38:00,
2013-06-06 09:44:00,77.4,51.8,30.09,West,270,1.3,1.3,41,0.00,,---,0.00,VWS V14.01,2013-06-06 16:44:00,
2013-06-06 09:49:00,78.4,50.8,30.09,East,90,0.0,1.3,38,0.00,,---,0.00,VWS V14.01,2013-06-06 16:49:00,
2013-06-06 09:54:00,77.9,51.0,30.09,NE,45,0.0,0.0,39,0.00,,---,0.00,VWS V14.01,2013-06-06 16:54:00,
2013-06-06 09:59:00,78.6,51.6,30.12,NE,45,1.3,1.6,39,0.00,,---,0.00,VWS V14.01,2013-06-06 16:59:00,
2013-06-06 10:04:00,77.9,48.8,30.12,ENE,68,1.3,3.8,36,0.00,,---,0.00,VWS V14.01,2013-06-06 17:04:00,
2013-06-06 10:09:00,78.3,51.3,30.12,SSE,158,0.0,1.3,39,0.00,,---,0.00,VWS V14.01,2013-06-06 17:09:00,
2013-06-06 10:14:00,77.5,49.2,30.09,ENE,68,1.1,1.1,37,0.00,,---,0.00,VWS V14.01,2013-06-06 17:14:00,
2013-06-06 10:19:00,78.4,50.8,30.09,SE,135,1.3,1.3,38,0.00,,---,0.00,VWS V14.01,2013-06-06 17:19:00,
2013-06-06 10:24:00,78.3,52.0,30.09,NNW,338,0.0,1.1,40,0.00,,---,0.00,VWS V14.01,2013-06-06 17:24:00,
2013-06-06 10:30:00,80.2,54.4,30.09,ESE,112,0.0,0.0,41,0.00,,---,0.00,VWS V14.01,2013-06-06 17:30:00,
2013-06-06 10:35:00,81.1,53.2,30.09,North,0,0.0,1.3,38,0.00,,---,0.00,VWS V14.01,2013-06-06 17:35:00,
2013-06-06 10:40:00,81.9,52.3,30.09,ENE,68,1.1,1.1,36,0.00,,---,0.00,VWS V14.01,2013-06-06 17:40:00,
2013-06-06 10:45:00,80.8,51.4,30.09,WNW,292,0.0,2.0,36,0.00,,---,0.00,VWS V14.01,2013-06-06 17:45:00,
2013-06-06 10:50:00,82.2,53.4,30.09,East,90,2.0,2.0,37,0.00,,---,0.00,VWS V14.01,2013-06-06 17:50:00,
2013-06-06 10:55:00,81.5,51.2,30.09,East,90,2.5,3.1,35,0.00,,---,0.00,VWS V14.01,2013-06-06 17:55:00,
2013-06-06 11:00:00,81.9,53.8,30.09,ESE,112,1.3,2.0,38,0.00,,---,0.00,VWS V14.01,2013-06-06 18:00:00,
2013-06-06 11:05:00,81.9,51.5,30.09,East,90,1.6,1.6,35,0.00,,---,0.00,VWS V14.01,2013-06-06 18:05:00,
2013-06-06 11:10:00,82.0,52.5,30.09,ESE,112,0.0,1.6,36,0.00,,---,0.00,VWS V14.01,2013-06-06 18:10:00,
2013-06-06 11:16:00,82.6,52.2,30.09,ENE,68,1.3,1.3,35,0.00,,---,0.00,VWS V14.01,2013-06-06 18:16:00,
2013-06-06 11:21:00,82.9,54.0,30.09,NE,45,2.5,2.5,37,0.00,,---,0.00,VWS V14.01,2013-06-06 18:21:00,
2013-06-06 11:26:00,81.0,51.5,30.09,NNW,338,0.0,2.2,36,0.00,,---,0.00,VWS V14.01,2013-06-06 18:26:00,
2013-06-06 11:31:00,81.9,53.8,30.06,SE,135,1.3,2.2,38,0.00,,---,0.00,VWS V14.01,2013-06-06 18:31:00,
2013-06-06 11:37:00,81.3,51.1,30.06,ENE,68,0.9,3.6,35,0.00,,---,0.00,VWS V14.01,2013-06-06 18:37:00,
2013-06-06 11:42:00,82.0,53.2,30.06,WNW,292,1.1,1.1,37,0.00,,---,0.00,VWS V14.01,2013-06-06 18:42:00,
2013-06-06 11:47:00,82.6,51.4,30.06,ENE,68,2.5,3.8,34,0.00,,---,0.00,VWS V14.01,2013-06-06 18:47:00,
2013-06-06 11:52:00,82.6,53.0,30.06,West,270,0.9,2.5,36,0.00,,---,0.00,VWS V14.01,2013-06-06 18:52:00,
2013-06-06 11:57:00,82.6,51.4,30.06,ENE,68,0.9,0.9,34,0.00,,---,0.00,VWS V14.01,2013-06-06 18:57:00,
2013-06-06 12:02:00,83.5,51.4,30.06,East,90,0.0,1.3,33,0.00,,---,0.00,VWS V14.01,2013-06-06 19:02:00,
2013-06-06 12:07:00,83.1,50.2,30.06,East,90,1.3,2.2,32,0.00,,---,0.00,VWS V14.01,2013-06-06 19:07:00,
2013-06-06 12:12:00,83.7,51.5,30.09,South,180,2.2,2.2,33,0.00,,---,0.00,VWS V14.01,2013-06-06 19:12:00,
2013-06-06 12:18:00,83.5,52.2,30.09,WNW,292,3.8,3.8,34,0.00,,---,0.00,VWS V14.01,2013-06-06 19:18:00,
2013-06-06 12:23:00,84.9,53.5,30.09,NE,45,0.0,2.2,34,0.00,,---,0.00,VWS V14.01,2013-06-06 19:23:00,
2013-06-06 12:28:00,85.5,52.3,30.06,North,0,1.6,2.9,32,0.00,,---,0.00,VWS V14.01,2013-06-06 19:28:00,
2013-06-06 12:33:00,85.1,52.8,30.06,North,0,0.0,5.4,33,0.00,,---,0.00,VWS V14.01,2013-06-06 19:33:00,
2013-06-06 12:34:00,85.1,52.8,30.06,West,270,1.6,2.7,33,0.00,,---,0.00,VWS V14.01,2013-06-06 19:34:00,
2013-06-06 12:39:00,85.1,52.8,30.06,East,90,0.9,2.0,33,0.00,,---,0.00,VWS V14.01,2013-06-06 19:39:00,
2013-06-06 12:44:00,85.5,52.3,30.06,WNW,292,0.0,3.1,32,0.00,,---,0.00,VWS V14.01,2013-06-06 19:44:00,
2013-06-06 12:49:00,86.2,52.0,30.06,ESE,112,2.5,2.5,31,0.00,,---,0.00,VWS V14.01,2013-06-06 19:49:00,
2013-06-06 12:54:00,86.0,53.6,30.06,West,270,1.3,1.3,33,0.00,,---,0.00,VWS V14.01,2013-06-06 19:54:00,
2013-06-06 12:59:00,86.2,52.9,30.03,West,270,0.9,0.9,32,0.00,,---,0.00,VWS V14.01,2013-06-06 19:59:00,
2013-06-06 13:04:00,85.6,50.7,30.03,West,270,2.2,2.7,30,0.00,,---,0.00,VWS V14.01,2013-06-06 20:04:00,
2013-06-06 13:09:00,86.4,53.0,30.03,WSW,248,0.0,0.0,32,0.00,,---,0.00,VWS V14.01,2013-06-06 20:09:00,
2013-06-06 13:15:00,86.5,54.9,30.03,NNE,22,2.2,2.2,34,0.00,,---,0.00,VWS V14.01,2013-06-06 20:15:00,
2013-06-06 13:20:00,85.8,51.7,30.03,East,90,0.0,2.0,31,0.00,,---,0.00,VWS V14.01,2013-06-06 20:20:00,
2013-06-06 13:25:00,86.2,52.9,30.03,NE,45,0.0,0.0,32,0.00,,---,0.00,VWS V14.01,2013-06-06 20:25:00,
2013-06-06 13:30:00,86.0,51.9,30.00,SE,135,0.0,2.0,31,0.00,,---,0.00,VWS V14.01,2013-06-06 20:30:00,
2013-06-06 13:35:00,85.8,50.8,30.00,West,270,4.3,4.3,30,0.00,,---,0.00,VWS V14.01,2013-06-06 20:35:00,
2013-06-06 13:40:00,85.3,52.1,30.00,NE,45,1.3,2.2,32,0.00,,---,0.00,VWS V14.01,2013-06-06 20:40:00,
2013-06-06 13:46:00,85.6,51.6,30.03,West,270,0.0,2.0,31,0.00,,---,0.00,VWS V14.01,2013-06-06 20:46:00,
2013-06-06 13:51:00,85.6,51.6,30.03,East,90,2.5,2.5,31,0.00,,---,0.00,VWS V14.01,2013-06-06 20:51:00,
2013-06-06 13:56:00,83.8,50.0,30.03,West,270,0.9,2.7,31,0.00,,---,0.00,VWS V14.01,2013-06-06 20:56:00,
2013-06-06 14:02:00,85.3,53.0,30.03,SE,135,0.0,0.0,33,0.00,,---,0.00,VWS V14.01,2013-06-06 21:02:00,
2013-06-06 14:07:00,84.0,50.2,30.03,West,270,2.0,2.9,31,0.00,,---,0.00,VWS V14.01,2013-06-06 21:07:00,
2013-06-06 14:12:00,85.5,52.3,30.03,East,90,0.0,1.3,32,0.00,,---,0.00,VWS V14.01,2013-06-06 21:12:00,
2013-06-06 14:17:00,85.5,51.4,30.03,WSW,248,1.1,3.6,31,0.00,,---,0.00,VWS V14.01,2013-06-06 21:17:00,
2013-06-06 14:22:00,86.4,53.0,30.03,SW,225,0.0,1.6,32,0.00,,---,0.00,VWS V14.01,2013-06-06 21:22:00,
2013-06-06 14:27:00,86.4,52.2,30.03,WSW,248,0.0,4.9,31,0.00,,---,0.00,VWS V14.01,2013-06-06 21:27:00,
2013-06-06 14:32:00,86.7,50.7,30.03,West,270,2.2,5.6,29,0.00,,---,0.00,VWS V14.01,2013-06-06 21:32:00,
2013-06-06 14:37:00,85.8,50.8,30.03,NNW,338,3.4,3.4,30,0.00,,---,0.00,VWS V14.01,2013-06-06 21:37:00,
2013-06-06 14:42:00,85.5,49.6,30.00,East,90,2.0,2.5,29,0.00,,---,0.00,VWS V14.01,2013-06-06 21:42:00,
2013-06-06 14:47:00,84.2,49.4,30.00,SSE,158,0.0,0.0,30,0.00,,---,0.00,VWS V14.01,2013-06-06 21:47:00,
2013-06-06 14:52:00,83.8,49.1,30.00,SSE,158,2.0,2.0,30,0.00,,---,0.00,VWS V14.01,2013-06-06 21:52:00,
2013-06-06 14:58:00,84.0,49.3,30.00,NNE,22,0.0,2.9,30,0.00,,---,0.00,VWS V14.01,2013-06-06 21:58:00,
2013-06-06 15:03:00,84.9,50.9,30.00,ESE,112,2.0,2.0,31,0.00,,---,0.00,VWS V14.01,2013-06-06 22:03:00,
2013-06-06 15:08:00,85.1,51.1,30.00,ENE,68,2.2,2.2,31,0.00,,---,0.00,VWS V14.01,2013-06-06 22:08:00,
2013-06-06 15:13:00,84.6,50.6,30.00,NNE,22,0.0,1.6,31,0.00,,---,0.00,VWS V14.01,2013-06-06 22:13:00,
2013-06-06 15:18:00,84.7,50.8,30.00,NE,45,1.1,3.1,31,0.00,,---,0.00,VWS V14.01,2013-06-06 22:18:00,
2013-06-06 15:23:00,84.6,50.6,30.00,West,270,3.6,3.8,31,0.00,,---,0.00,VWS V14.01,2013-06-06 22:23:00,
2013-06-06 15:28:00,85.1,53.6,30.00,WNW,292,1.1,2.7,34,0.00,,---,0.00,VWS V14.01,2013-06-06 22:28:00,
2013-06-06 15:33:00,84.9,52.6,30.00,West,270,1.3,3.6,33,0.00,,---,0.00,VWS V14.01,2013-06-06 22:33:00,
2013-06-06 15:38:00,84.4,53.0,30.00,SW,225,0.0,1.3,34,0.00,,---,0.00,VWS V14.01,2013-06-06 22:38:00,
2013-06-06 15:43:00,84.2,52.8,30.00,East,90,1.6,1.6,34,0.00,,---,0.00,VWS V14.01,2013-06-06 22:43:00,
2013-06-06 15:48:00,84.2,53.6,30.00,WSW,248,2.7,2.7,35,0.00,,---,0.00,VWS V14.01,2013-06-06 22:48:00,
2013-06-06 15:53:00,85.1,54.4,30.00,East,90,2.0,2.0,35,0.00,,---,0.00,VWS V14.01,2013-06-06 22:53:00,
2013-06-06 15:58:00,84.6,51.5,30.00,NE,45,2.0,3.8,32,0.00,,---,0.00,VWS V14.01,2013-06-06 22:58:00,
2013-06-06 16:03:00,84.7,53.3,30.00,ENE,68,0.0,0.9,34,0.00,,---,0.00,VWS V14.01,2013-06-06 23:03:00,
2013-06-06 16:08:00,84.6,51.5,30.00,NE,45,2.9,2.9,32,0.00,,---,0.00,VWS V14.01,2013-06-06 23:08:00,
2013-06-06 16:14:00,84.4,52.2,30.00,North,0,0.0,0.0,33,0.00,,---,0.00,VWS V14.01,2013-06-06 23:14:00,
2013-06-06 16:19:00,84.7,51.6,30.00,South,180,0.0,2.5,32,0.00,,---,0.00,VWS V14.01,2013-06-06 23:19:00,
2013-06-06 16:24:00,84.6,52.3,30.00,WSW,248,0.0,0.9,33,0.00,,---,0.00,VWS V14.01,2013-06-06 23:24:00,
2013-06-06 16:29:00,84.9,51.8,30.00,West,270,2.0,2.9,32,0.00,,---,0.00,VWS V14.01,2013-06-06 23:29:00,
2013-06-06 16:34:00,84.6,50.6,30.00,West,270,2.2,6.5,31,0.00,,---,0.00,VWS V14.01,2013-06-06 23:34:00,
2013-06-06 16:39:00,84.9,50.9,30.00,WNW,292,2.5,4.3,31,0.00,,---,0.00,VWS V14.01,2013-06-06 23:39:00,
2013-06-06 16:44:00,85.1,50.2,30.00,WNW,292,0.0,2.9,30,0.00,,---,0.00,VWS V14.01,2013-06-06 23:44:00,
2013-06-06 16:49:00,85.1,50.2,30.00,West,270,3.1,4.3,30,0.00,,---,0.00,VWS V14.01,2013-06-06 23:49:00,
2013-06-06 16:55:00,84.6,48.8,30.00,West,270,2.5,3.8,29,0.00,,---,0.00,VWS V14.01,2013-06-06 23:55:00,
2013-06-06 17:00:00,84.7,49.9,30.00,NW,315,0.0,1.6,30,0.00,,---,0.00,VWS V14.01,2013-06-07 00:00:00,
2013-06-06 17:05:00,85.1,50.2,30.00,SSW,202,0.0,0.9,30,0.00,,---,0.00,VWS V14.01,2013-06-07 00:05:00,
2013-06-06 17:10:00,83.5,47.9,30.00,West,270,0.0,0.0,29,0.00,,---,0.00,VWS V14.01,2013-06-07 00:10:00,
2013-06-06 17:15:00,83.3,47.8,30.00,West,270,0.0,0.0,29,0.00,,---,0.00,VWS V14.01,2013-06-07 00:15:00,
2013-06-06 17:20:00,83.1,47.6,30.00,West,270,1.6,1.6,29,0.00,,---,0.00,VWS V14.01,2013-06-07 00:20:00,
2013-06-06 17:26:00,82.2,44.0,30.00,WNW,292,2.7,3.6,26,0.00,,---,0.00,VWS V14.01,2013-06-07 00:26:00,
2013-06-06 17:31:00,81.5,41.3,30.00,North,0,0.9,4.9,24,0.00,,---,0.00,VWS V14.01,2013-06-07 00:31:00,
2013-06-06 17:36:00,81.3,44.2,30.00,NW,315,1.1,5.6,27,0.00,,---,0.00,VWS V14.01,2013-06-07 00:36:00,
2013-06-06 17:41:00,79.7,44.7,30.00,SW,225,0.9,2.7,29,0.00,,---,0.00,VWS V14.01,2013-06-07 00:41:00,
2013-06-06 17:47:00,78.1,44.2,30.00,West,270,2.2,2.2,30,0.00,,---,0.00,VWS V14.01,2013-06-07 00:47:00,
2013-06-06 17:52:00,77.4,45.2,30.00,West,270,2.9,2.9,32,0.00,,---,0.00,VWS V14.01,2013-06-07 00:52:00,
2013-06-06 17:57:00,76.3,45.9,30.03,West,270,1.6,3.6,34,0.00,,---,0.00,VWS V14.01,2013-06-07 00:57:00,
2013-06-06 18:02:00,75.2,45.7,30.03,West,270,2.0,3.4,35,0.00,,---,0.00,VWS V14.01,2013-06-07 01:02:00,
2013-06-06 18:07:00,74.3,45.7,30.03,West,270,1.6,3.1,36,0.00,,---,0.00,VWS V14.01,2013-06-07 01:07:00,
2013-06-06 18:12:00,73.8,45.9,30.03,West,270,0.0,0.0,37,0.00,,---,0.00,VWS V14.01,2013-06-07 01:12:00,
2013-06-06 18:17:00,73.0,46.0,30.03,WNW,292,2.2,3.1,38,0.00,,---,0.00,VWS V14.01,2013-06-07 01:17:00,
2013-06-06 18:23:00,72.7,45.6,30.03,West,270,2.9,2.9,38,0.00,,---,0.00,VWS V14.01,2013-06-07 01:23:00,
2013-06-06 18:28:00,72.7,45.6,30.03,West,270,2.5,4.9,38,0.00,,---,0.00,VWS V14.01,2013-06-07 01:28:00,
2013-06-06 18:33:00,72.9,45.8,30.03,WNW,292,1.6,1.6,38,0.00,,---,0.00,VWS V14.01,2013-06-07 01:33:00,
2013-06-06 18:38:00,72.5,46.2,30.03,SW,225,0.0,0.0,39,0.00,,---,0.00,VWS V14.01,2013-06-07 01:38:00,
2013-06-06 18:43:00,72.1,44.5,30.03,WSW,248,2.5,3.1,37,0.00,,---,0.00,VWS V14.01,2013-06-07 01:43:00,
2013-06-06 18:48:00,71.4,44.5,30.03,West,270,2.9,2.9,38,0.00,,---,0.00,VWS V14.01,2013-06-07 01:48:00,
2013-06-06 18:53:00,70.7,43.2,30.03,West,270,0.0,1.1,37,0.00,,---,0.00,VWS V14.01,2013-06-07 01:53:00,
2013-06-06 18:58:00,70.2,42.7,30.03,NW,315,0.0,0.0,37,0.00,,---,0.00,VWS V14.01,2013-06-07 01:58:00,
2013-06-06 19:03:00,69.3,41.2,30.03,West,270,0.0,1.6,36,0.00,,---,0.00,VWS V14.01,2013-06-07 02:03:00,
2013-06-06 19:08:00,68.9,40.9,30.03,West,270,0.9,1.3,36,0.00,,---,0.00,VWS V14.01,2013-06-07 02:08:00,
2013-06-06 19:13:00,68.5,41.3,30.03,West,270,0.0,0.0,37,0.00,,---,0.00,VWS V14.01,2013-06-07 02:13:00,
2013-06-06 19:19:00,68.4,41.1,30.03,ESE,112,0.0,0.0,37,0.00,,---,0.00,VWS V14.01,2013-06-07 02:19:00,
2013-06-06 19:24:00,68.2,41.6,30.03,SSE,158,0.0,1.6,38,0.00,,---,0.00,VWS V14.01,2013-06-07 02:24:00,
2013-06-06 19:29:00,67.6,41.2,30.03,West,270,0.0,0.0,38,0.00,,---,0.00,VWS V14.01,2013-06-07 02:29:00,
2013-06-06 19:34:00,67.3,42.2,30.03,West,270,1.3,2.7,40,0.00,,---,0.00,VWS V14.01,2013-06-07 02:34:00,
2013-06-06 19:39:00,66.6,42.2,30.03,West,270,1.3,2.2,41,0.00,,---,0.00,VWS V14.01,2013-06-07 02:39:00,
2013-06-06 19:44:00,66.2,42.5,30.03,West,270,0.0,0.0,42,0.00,,---,0.00,VWS V14.01,2013-06-07 02:44:00,
2013-06-06 19:49:00,65.8,43.3,30.03,South,180,0.0,0.0,44,0.00,,---,0.00,VWS V14.01,2013-06-07 02:49:00,
2013-06-06 19:54:00,65.7,42.6,30.03,SW,225,0.0,0.0,43,0.00,,---,0.00,VWS V14.01,2013-06-07 02:54:00,
2013-06-06 19:59:00,65.8,42.7,30.03,West,270,2.7,3.6,43,0.00,,---,0.00,VWS V14.01,2013-06-07 02:59:00,
2013-06-06 20:05:00,65.7,42.6,30.03,WNW,292,1.3,3.4,43,0.00,,---,0.00,VWS V14.01,2013-06-07 03:05:00,
2013-06-06 20:10:00,65.3,42.2,30.03,West,270,0.9,0.9,43,0.00,,---,0.00,VWS V14.01,2013-06-07 03:10:00,
2013-06-06 20:15:00,64.8,41.8,30.03,West,270,0.0,2.7,43,0.00,,---,0.00,VWS V14.01,2013-06-07 03:15:00,
2013-06-06 20:20:00,64.2,41.3,30.03,West,270,0.0,0.0,43,0.00,,---,0.00,VWS V14.01,2013-06-07 03:20:00,
2013-06-06 20:25:00,63.5,41.2,30.03,West,270,0.0,0.0,44,0.00,,---,0.00,VWS V14.01,2013-06-07 03:25:00,
2013-06-06 20:30:00,63.0,40.7,30.03,West,270,0.0,0.0,44,0.00,,---,0.00,VWS V14.01,2013-06-07 03:30:00,
2013-06-06 20:35:00,62.2,40.7,30.03,West,270,0.0,0.0,45,0.00,,---,0.00,VWS V14.01,2013-06-07 03:35:00,
2013-06-06 20:40:00,61.7,40.7,30.03,SSE,158,0.0,0.0,46,0.00,,---,0.00,VWS V14.01,2013-06-07 03:40:00,
2013-06-06 20:45:00,61.2,40.8,30.03,West,270,0.0,0.0,47,0.00,,---,0.00,VWS V14.01,2013-06-07 03:45:00,
2013-06-06 20:50:00,61.0,40.1,30.03,West,270,0.0,0.0,46,0.00,,---,0.00,VWS V14.01,2013-06-07 03:50:00,
2013-06-06 20:55:00,60.4,40.1,30.03,West,270,0.0,0.0,47,0.00,,---,0.00,VWS V14.01,2013-06-07 03:55:00,
2013-06-06 21:01:00,60.1,39.8,30.03,West,270,0.0,0.0,47,0.00,,---,0.00,VWS V14.01,2013-06-07 04:01:00,
2013-06-06 21:02:00,59.9,39.6,30.03,West,270,0.0,1.1,47,0.00,,---,0.00,VWS V14.01,2013-06-07 04:02:00,
2013-06-06 21:03:00,59.9,40.2,30.03,West,270,0.0,1.6,48,0.00,,---,0.00,VWS V14.01,2013-06-07 04:03:00,
2013-06-06 21:04:00,59.9,40.2,30.03,West,270,0.0,1.6,48,0.00,,---,0.00,VWS V14.01,2013-06-07 04:04:00,
2013-06-06 21:07:00,59.5,39.8,30.03,West,270,0.0,0.0,48,0.00,,---,0.00,VWS V14.01,2013-06-07 04:07:00,
2013-06-06 21:12:00,59.2,39.5,30.06,West,270,0.0,0.0,48,0.00,,---,0.00,VWS V14.01,2013-06-07 04:12:00,
2013-06-06 21:17:00,59.0,39.9,30.06,West,270,1.6,2.0,49,0.00,,---,0.00,VWS V14.01,2013-06-07 04:17:00,
2013-06-06 21:22:00,59.0,40.4,30.06,West,270,1.6,1.6,50,0.00,,---,0.00,VWS V14.01,2013-06-07 04:22:00,
2013-06-06 21:27:00,58.6,40.6,30.06,West,270,0.0,0.0,51,0.00,,---,0.00,VWS V14.01,2013-06-07 04:27:00,
2013-06-06 21:32:00,58.3,39.7,30.06,West,270,0.0,0.0,50,0.00,,---,0.00,VWS V14.01,2013-06-07 04:32:00,
2013-06-06 21:38:00,57.9,39.9,30.06,West,270,0.0,0.0,51,0.00,,---,0.00,VWS V14.01,2013-06-07 04:38:00,
2013-06-06 21:43:00,57.2,39.2,30.06,West,270,0.0,0.0,51,0.00,,---,0.00,VWS V14.01,2013-06-07 04:43:00,
2013-06-06 21:48:00,56.7,38.8,30.06,West,270,0.0,0.0,51,0.00,,---,0.00,VWS V14.01,2013-06-07 04:48:00,
2013-06-06 21:53:00,56.3,39.4,30.06,West,270,0.0,0.0,53,0.00,,---,0.00,VWS V14.01,2013-06-07 04:53:00,
2013-06-06 21:58:00,55.9,39.5,30.09,West,270,0.0,0.0,54,0.00,,---,0.00,VWS V14.01,2013-06-07 04:58:00,
2013-06-06 22:03:00,55.6,39.7,30.09,West,270,0.0,0.0,55,0.00,,---,0.00,VWS V14.01,2013-06-07 05:03:00,
2013-06-06 22:08:00,55.2,40.3,30.09,West,270,0.0,0.0,57,0.00,,---,0.00,VWS V14.01,2013-06-07 05:08:00,
2013-06-06 22:13:00,54.9,40.8,30.09,West,270,0.0,0.0,59,0.00,,---,0.00,VWS V14.01,2013-06-07 05:13:00,
2013-06-06 22:19:00,54.5,40.9,30.09,West,270,0.0,0.0,60,0.00,,---,0.00,VWS V14.01,2013-06-07 05:19:00,
2013-06-06 22:24:00,54.0,41.2,30.09,West,270,0.0,0.0,62,0.00,,---,0.00,VWS V14.01,2013-06-07 05:24:00,
2013-06-06 22:29:00,53.8,41.1,30.09,West,270,0.0,0.0,62,0.00,,---,0.00,VWS V14.01,2013-06-07 05:29:00,
2013-06-06 22:34:00,53.2,41.0,30.09,West,270,0.0,0.0,63,0.00,,---,0.00,VWS V14.01,2013-06-07 05:34:00,
2013-06-06 22:39:00,53.1,41.6,30.09,West,270,0.0,0.0,65,0.00,,---,0.00,VWS V14.01,2013-06-07 05:39:00,
2013-06-06 22:44:00,52.9,41.5,30.09,West,270,0.0,0.0,65,0.00,,---,0.00,VWS V14.01,2013-06-07 05:44:00,
2013-06-06 22:49:00,52.5,41.9,30.09,West,270,0.0,0.0,67,0.00,,---,0.00,VWS V14.01,2013-06-07 05:49:00,
2013-06-06 22:54:00,52.3,42.1,30.09,West,270,0.0,0.0,68,0.00,,---,0.00,VWS V14.01,2013-06-07 05:54:00,
2013-06-06 22:59:00,52.0,42.1,30.09,West,270,0.0,0.0,69,0.00,,---,0.00,VWS V14.01,2013-06-07 05:59:00,
2013-06-06 23:04:00,51.8,42.0,30.09,West,270,0.0,0.0,69,0.00,,---,0.00,VWS V14.01,2013-06-07 06:04:00,
2013-06-06 23:09:00,51.6,42.5,30.09,West,270,0.0,0.0,71,0.00,,---,0.00,VWS V14.01,2013-06-07 06:09:00,
2013-06-06 23:14:00,51.4,42.4,30.09,West,270,0.0,0.0,71,0.00,,---,0.00,VWS V14.01,2013-06-07 06:14:00,
2013-06-06 23:19:00,51.3,42.2,30.09,West,270,0.0,0.0,71,0.00,,---,0.00,VWS V14.01,2013-06-07 06:19:00,
2013-06-06 23:24:00,51.1,42.4,30.09,West,270,0.0,0.0,72,0.00,,---,0.00,VWS V14.01,2013-06-07 06:24:00,
2013-06-06 23:29:00,51.1,42.4,30.09,West,270,0.0,0.0,72,0.00,,---,0.00,VWS V14.01,2013-06-07 06:29:00,
2013-06-06 23:35:00,50.5,42.2,30.09,West,270,0.0,0.0,73,0.00,,---,0.00,VWS V14.01,2013-06-07 06:35:00,
2013-06-06 23:40:00,50.5,42.2,30.09,West,270,0.0,0.0,73,0.00,,---,0.00,VWS V14.01,2013-06-07 06:40:00,
2013-06-06 23:45:00,50.4,42.0,30.09,West,270,0.0,0.0,73,0.00,,---,0.00,VWS V14.01,2013-06-07 06:45:00,
2013-06-06 23:50:00,50.2,42.2,30.09,SW,225,0.0,0.0,74,0.00,,---,0.00,VWS V14.01,2013-06-07 06:50:00,
2013-06-06 23:55:00,50.2,42.2,30.09,SW,225,0.0,0.0,74,0.00,,---,0.00,VWS V14.01,2013-06-07 06:55:00,